Terminal Aerodrome Forecast
Issued by NWS

Home | Current Version | Previous Version | Text Only | Print | Product List | Glossary On
Versions: 1 2 3 4 5 6 7 8 9 10 11 12 13 14
000
FTUS44 KCRP 052328
TAFLRD
TAF
KLRD 052328Z 0600/0624 12014G21KT P6SM VCSH SCT030 BKN050
      TEMPO 0600/0603 -SHRA BKN030
     FM060300 13015G22KT P6SM SCT020 OVC050
     FM060800 14014KT P6SM BKN015 OVC040
     FM061500 13012KT P6SM BKN022 BKN050
     FM062000 12015KT P6SM BKN035 BKN070=

USA.gov is the U.S. government's official web portal to all federal, state and local government web resources and services.